createdAt,value
2023-05-10T00:01:23.264Z,29.70
2023-05-10T00:03:53.715Z,29.76
2023-05-10T00:06:24.441Z,29.83
2023-05-10T00:08:54.744Z,29.92
2023-05-10T00:11:25.198Z,29.96
2023-05-10T00:13:55.449Z,29.96
2023-05-10T00:16:25.847Z,30.00
2023-05-10T00:18:56.300Z,30.01
2023-05-10T00:21:26.871Z,30.03
2023-05-10T00:23:57.549Z,30.06
2023-05-10T00:26:27.689Z,30.06
2023-05-10T00:29:00.907Z,30.09
2023-05-10T00:31:31.019Z,30.13
2023-05-10T00:34:01.199Z,30.27
2023-05-10T00:36:31.369Z,30.30
2023-05-10T00:39:01.913Z,30.28
2023-05-10T00:41:35.445Z,30.27
2023-05-10T00:44:07.967Z,30.27
2023-05-10T00:46:38.731Z,30.25
2023-05-10T00:49:09.155Z,30.30
2023-05-10T00:51:39.510Z,30.30
2023-05-10T00:54:10.252Z,30.30
2023-05-10T00:56:40.894Z,30.32
2023-05-10T00:59:11.450Z,30.33
2023-05-10T01:01:41.717Z,30.35
2023-05-10T01:04:13.564Z,30.37
2023-05-10T01:06:44.468Z,30.38
2023-05-10T01:09:14.600Z,30.38
2023-05-10T01:11:44.750Z,30.43
2023-05-10T01:14:15.030Z,30.42
2023-05-10T01:16:47.091Z,30.45
2023-05-10T01:19:37.438Z,30.44
2023-05-10T01:22:17.139Z,30.47
2023-05-10T01:25:06.022Z,30.48
2023-05-10T01:27:46.683Z,30.53
2023-05-10T01:30:38.157Z,30.53
2023-05-10T01:33:22.982Z,30.55
2023-05-10T01:35:53.196Z,30.58
2023-05-10T01:38:26.409Z,30.59
2023-05-10T01:41:05.800Z,30.61
2023-05-10T01:43:43.005Z,30.63
2023-05-10T01:46:17.345Z,30.65
2023-05-10T01:48:51.354Z,30.67
2023-05-10T01:51:31.962Z,30.69
2023-05-10T01:54:06.514Z,30.71
2023-05-10T01:56:37.916Z,30.73
2023-05-10T01:59:09.257Z,30.76
2023-05-10T02:01:41.181Z,30.77
2023-05-10T02:04:12.473Z,30.80
2023-05-10T02:06:44.494Z,30.84
2023-05-10T02:09:15.929Z,30.86
2023-05-10T02:11:47.077Z,30.85
2023-05-10T02:14:18.279Z,30.89
2023-05-10T02:16:49.133Z,30.93
2023-05-10T02:19:20.727Z,30.96
2023-05-10T02:21:53.602Z,30.99
2023-05-10T02:24:25.027Z,31.00
2023-05-10T02:26:58.175Z,31.03
2023-05-10T02:29:29.785Z,31.07
2023-05-10T02:32:00.357Z,31.09
2023-05-10T02:34:31.473Z,31.12
2023-05-10T02:37:02.720Z,31.15
2023-05-10T02:39:34.669Z,31.19
2023-05-10T02:42:05.352Z,31.22
2023-05-10T02:44:36.915Z,31.25
2023-05-10T02:47:07.551Z,31.28
2023-05-10T02:49:37.781Z,31.32
2023-05-10T02:52:09.535Z,31.35
2023-05-10T02:54:46.717Z,31.37
2023-05-10T02:57:20.536Z,31.41
2023-05-10T02:59:50.676Z,31.44
2023-05-10T03:02:21.126Z,31.47
2023-05-10T03:04:51.688Z,31.50
2023-05-10T03:07:23.686Z,31.54
2023-05-10T03:09:54.055Z,31.57
2023-05-10T03:12:45.031Z,31.60
2023-05-10T03:15:21.028Z,31.64
2023-05-10T03:18:05.236Z,31.67
2023-05-10T03:20:45.724Z,31.68
2023-05-10T03:23:29.812Z,31.74
2023-05-10T03:26:00.779Z,31.76
2023-05-10T03:28:31.837Z,31.77
2023-05-10T03:31:02.506Z,31.79
2023-05-10T03:33:34.903Z,31.81
2023-05-10T03:36:05.258Z,31.82
2023-05-10T03:38:35.415Z,31.83
2023-05-10T03:41:05.805Z,31.84
2023-05-10T03:43:36.662Z,31.85
2023-05-10T03:46:07.350Z,31.86
2023-05-10T03:48:38.173Z,31.87
2023-05-10T03:51:09.088Z,31.87
2023-05-10T03:53:39.551Z,31.89
2023-05-10T03:56:10.329Z,31.91
2023-05-10T03:58:40.568Z,31.92
2023-05-10T04:01:11.071Z,31.95
2023-05-10T04:03:41.604Z,31.98
2023-05-10T04:06:14.220Z,31.98
2023-05-10T04:08:44.397Z,32.01
2023-05-10T04:11:15.498Z,32.03
2023-05-10T04:13:46.298Z,32.05
2023-05-10T04:16:17.053Z,32.05
2023-05-10T04:18:47.234Z,32.08
2023-05-10T04:21:17.517Z,32.10
2023-05-10T04:23:48.095Z,32.11
2023-05-10T04:26:19.010Z,32.13
2023-05-10T04:28:49.355Z,32.16
2023-05-10T04:31:20.036Z,32.19
2023-05-10T04:33:50.414Z,32.22
2023-05-10T04:36:21.152Z,32.25
2023-05-10T04:38:51.569Z,32.27
2023-05-10T04:41:22.895Z,32.30
2023-05-10T04:43:53.042Z,32.34
2023-05-10T04:46:23.229Z,32.35
2023-05-10T04:48:53.396Z,32.37
2023-05-10T04:51:23.607Z,32.39
2023-05-10T04:54:05.273Z,32.41
2023-05-10T04:56:35.976Z,32.44
2023-05-10T04:59:06.291Z,32.49
2023-05-10T05:01:36.954Z,32.52
2023-05-10T05:04:09.348Z,32.54
2023-05-10T05:06:39.896Z,32.57
2023-05-10T05:09:10.154Z,32.57
2023-05-10T05:11:40.893Z,32.60
2023-05-10T05:14:11.387Z,32.62
2023-05-10T05:16:42.504Z,32.65
2023-05-10T05:19:12.676Z,32.67
2023-05-10T05:21:42.813Z,32.69
2023-05-10T05:24:14.779Z,32.72
2023-05-10T05:26:45.064Z,32.74
2023-05-10T05:29:15.510Z,32.80
2023-05-10T05:31:45.744Z,32.82
2023-05-10T05:34:15.880Z,32.86
2023-05-10T05:36:46.354Z,32.89
2023-05-10T05:39:16.795Z,32.91
2023-05-10T05:41:47.098Z,32.56
2023-05-10T05:44:17.234Z,32.99
2023-05-10T05:46:47.680Z,33.01
2023-05-10T05:49:17.885Z,33.06
2023-05-10T05:51:48.262Z,33.09
2023-05-10T05:54:18.393Z,33.12
2023-05-10T05:56:48.803Z,33.17
2023-05-10T05:59:19.484Z,33.21
2023-05-10T06:01:50.512Z,33.25
2023-05-10T06:04:21.307Z,33.30
2023-05-10T06:06:51.648Z,33.34
2023-05-10T06:09:21.804Z,33.38
2023-05-10T06:11:52.086Z,33.44
2023-05-10T06:14:26.195Z,33.49
2023-05-10T06:16:56.570Z,33.54
2023-05-10T06:19:27.178Z,33.59
2023-05-10T06:21:57.558Z,33.64
2023-05-10T06:24:29.554Z,33.69
2023-05-10T06:27:02.466Z,33.73
2023-05-10T06:29:32.671Z,33.78
2023-05-10T06:32:02.934Z,33.86
2023-05-10T06:34:33.989Z,33.92
2023-05-10T06:37:05.831Z,33.96
2023-05-10T06:39:35.954Z,34.02
2023-05-10T06:42:07.037Z,34.08
2023-05-10T06:44:37.299Z,34.13
2023-05-10T06:47:07.712Z,34.18
2023-05-10T06:49:37.943Z,34.23
2023-05-10T06:52:08.155Z,34.28
2023-05-10T06:54:38.455Z,34.33
2023-05-10T06:57:16.101Z,34.39
2023-05-10T06:59:49.987Z,34.46
2023-05-10T07:02:20.346Z,34.51
2023-05-10T07:04:51.162Z,34.55
2023-05-10T07:07:22.048Z,34.60
2023-05-10T07:09:53.582Z,34.63
2023-05-10T07:12:23.915Z,34.68
2023-05-10T07:14:54.603Z,34.72
2023-05-10T07:17:24.789Z,34.78
2023-05-10T07:19:55.344Z,34.82
2023-05-10T07:22:25.486Z,34.85
2023-05-10T07:24:55.682Z,34.87
2023-05-10T07:27:25.832Z,34.90
2023-05-10T07:29:57.017Z,34.93
2023-05-10T07:32:27.264Z,34.96
2023-05-10T07:34:58.043Z,35.00
2023-05-10T07:37:28.187Z,35.03
2023-05-10T07:39:58.611Z,35.06
2023-05-10T07:42:29.243Z,35.09
2023-05-10T07:44:59.665Z,35.12
2023-05-10T07:47:30.043Z,35.16
2023-05-10T07:50:00.365Z,35.18
2023-05-10T07:52:30.865Z,35.20
2023-05-10T07:55:01.121Z,35.23
2023-05-10T07:57:31.399Z,35.23
2023-05-10T08:00:02.561Z,35.24
2023-05-10T08:02:44.404Z,35.25
2023-05-10T08:05:14.964Z,35.24
2023-05-10T08:07:45.431Z,35.23
2023-05-10T08:10:15.548Z,35.24
2023-05-10T08:12:45.748Z,35.23
2023-05-10T08:15:16.164Z,35.24
2023-05-10T08:17:47.122Z,35.24
2023-05-10T08:20:21.361Z,35.23
2023-05-10T08:22:52.231Z,35.24
2023-05-10T08:25:22.347Z,35.23
2023-05-10T08:27:53.142Z,35.22
2023-05-10T08:30:23.323Z,35.22
2023-05-10T08:32:53.653Z,35.21
2023-05-10T08:35:24.088Z,35.19
2023-05-10T08:37:54.346Z,35.19
2023-05-10T08:40:27.221Z,35.17
2023-05-10T08:43:17.975Z,35.15
2023-05-10T08:45:49.275Z,35.14
2023-05-10T08:48:20.451Z,35.10
2023-05-10T08:50:51.471Z,35.11
2023-05-10T08:53:21.904Z,35.09
2023-05-10T08:55:52.221Z,35.08
2023-05-10T08:58:22.748Z,35.05
2023-05-10T09:00:55.823Z,35.03
2023-05-10T09:03:26.129Z,35.03
2023-05-10T09:05:58.216Z,35.00
2023-05-10T09:08:37.188Z,35.02
2023-05-10T09:11:08.248Z,34.98
2023-05-10T09:13:39.338Z,34.83
2023-05-10T09:16:20.374Z,34.94
2023-05-10T09:18:52.694Z,34.87
2023-05-10T09:21:23.281Z,34.85
2023-05-10T09:23:56.681Z,34.88
2023-05-10T09:26:30.766Z,34.87
2023-05-10T09:29:22.411Z,34.86
2023-05-10T09:31:54.858Z,34.87
2023-05-10T09:34:32.606Z,34.83
2023-05-10T09:37:06.808Z,34.82
2023-05-10T09:39:38.365Z,34.82
2023-05-10T09:42:10.150Z,34.78
2023-05-10T09:44:40.764Z,34.81
2023-05-10T09:47:11.059Z,34.78
2023-05-10T09:49:41.344Z,34.74
2023-05-10T09:52:12.238Z,34.72
2023-05-10T09:54:57.861Z,34.69
2023-05-10T09:57:31.901Z,34.68
2023-05-10T10:00:09.280Z,34.67
2023-05-10T10:03:05.739Z,34.68
2023-05-10T10:05:46.427Z,34.69
2023-05-10T10:08:17.721Z,34.67
2023-05-10T10:11:06.339Z,34.69
2023-05-10T10:14:27.431Z,34.21
2023-05-10T10:17:08.780Z,34.55
2023-05-10T10:19:39.675Z,34.40
2023-05-10T10:22:28.605Z,34.33
2023-05-10T10:25:01.858Z,34.32
2023-05-10T10:27:48.013Z,34.23
2023-05-10T10:30:30.672Z,34.20
2023-05-10T10:33:27.864Z,34.20
2023-05-10T10:36:01.799Z,34.09
2023-05-10T10:39:08.645Z,34.13
2023-05-10T10:41:40.194Z,34.14
2023-05-10T10:44:29.776Z,34.13
2023-05-10T10:47:08.235Z,33.77
2023-05-10T10:49:46.781Z,34.15
2023-05-10T10:52:33.837Z,34.16
2023-05-10T10:55:13.386Z,34.14
2023-05-10T10:57:43.649Z,33.99
2023-05-10T11:00:26.338Z,34.15
2023-05-10T11:03:02.497Z,34.14
2023-05-10T11:05:40.136Z,34.14
2023-05-10T11:08:14.896Z,34.14
2023-05-10T11:10:55.314Z,34.12
2023-05-10T11:13:42.662Z,34.11
2023-05-10T11:16:29.228Z,34.09
2023-05-10T11:19:07.167Z,34.09
2023-05-10T11:21:47.854Z,34.08
2023-05-10T11:24:22.782Z,34.08
2023-05-10T11:26:54.208Z,34.08
2023-05-10T11:29:24.810Z,34.07
2023-05-10T11:31:58.048Z,34.06
2023-05-10T11:34:37.731Z,34.04
2023-05-10T11:37:08.471Z,34.03
2023-05-10T11:39:38.833Z,34.00
2023-05-10T11:42:13.649Z,34.24
2023-05-10T11:44:45.767Z,34.21
2023-05-10T11:47:16.038Z,34.13
2023-05-10T11:49:46.917Z,34.05
2023-05-10T11:52:17.287Z,33.98
2023-05-10T11:54:57.000Z,33.89
2023-05-10T11:57:29.392Z,33.86
2023-05-10T12:00:00.236Z,33.81
2023-05-10T12:02:32.683Z,33.73
2023-05-10T12:05:03.922Z,33.63
2023-05-10T12:07:34.564Z,33.62
2023-05-10T12:10:11.160Z,33.58
2023-05-10T12:12:44.446Z,33.61
2023-05-10T12:15:31.594Z,33.53
2023-05-10T12:18:05.536Z,33.50
2023-05-10T12:20:36.308Z,33.43
2023-05-10T12:23:07.875Z,33.30
2023-05-10T12:25:44.292Z,33.13
2023-05-10T12:28:14.818Z,32.99
2023-05-10T12:30:45.267Z,32.86
2023-05-10T12:33:17.365Z,32.74
2023-05-10T12:35:51.364Z,32.63
2023-05-10T12:38:29.077Z,32.52
2023-05-10T12:41:06.290Z,32.45
2023-05-10T12:43:37.190Z,32.35
2023-05-10T12:46:14.308Z,32.25
2023-05-10T12:48:49.191Z,32.16
2023-05-10T12:51:28.621Z,32.08
2023-05-10T12:53:59.171Z,32.00
2023-05-10T12:56:39.443Z,31.97
2023-05-10T12:59:09.859Z,31.84
2023-05-10T13:01:40.134Z,31.72
2023-05-10T13:04:10.491Z,31.67
2023-05-10T13:06:40.834Z,31.63
2023-05-10T13:09:11.083Z,31.61
2023-05-10T13:11:41.320Z,31.58
2023-05-10T13:14:11.557Z,31.53
2023-05-10T13:16:41.914Z,31.54
2023-05-10T13:19:13.967Z,31.51
2023-05-10T13:21:44.576Z,31.47
2023-05-10T13:24:16.396Z,31.39
2023-05-10T13:26:47.286Z,31.38
2023-05-10T13:29:19.847Z,31.43
2023-05-10T13:31:50.942Z,31.39
2023-05-10T13:34:22.897Z,31.35
2023-05-10T13:36:53.516Z,31.35
2023-05-10T13:39:23.866Z,31.30
2023-05-10T13:41:55.737Z,31.23
2023-05-10T13:44:26.098Z,31.23
2023-05-10T13:46:56.459Z,31.15
2023-05-10T13:49:26.795Z,31.19
2023-05-10T13:51:56.948Z,31.19
2023-05-10T13:54:27.953Z,31.14
2023-05-10T13:56:58.694Z,31.11
2023-05-10T13:59:28.862Z,31.13
2023-05-10T14:01:59.211Z,31.08
2023-05-10T14:04:29.812Z,31.09
2023-05-10T14:07:04.711Z,31.01
2023-05-10T14:09:41.978Z,31.03
2023-05-10T14:12:17.026Z,31.00
2023-05-10T14:14:51.579Z,30.99
2023-05-10T14:17:22.683Z,30.97
2023-05-10T14:19:53.190Z,31.00
2023-05-10T14:22:24.451Z,30.99
2023-05-10T14:24:54.685Z,31.03
2023-05-10T14:27:25.787Z,31.01
2023-05-10T14:29:56.687Z,30.98
2023-05-10T14:32:30.345Z,30.93
2023-05-10T14:35:18.465Z,30.88
2023-05-10T14:37:58.965Z,30.86
2023-05-10T14:40:30.005Z,30.84
2023-05-10T14:43:00.649Z,30.80
2023-05-10T14:45:31.225Z,30.78
2023-05-10T14:48:02.474Z,30.71
2023-05-10T14:50:37.528Z,30.70
2023-05-10T14:53:08.247Z,30.66
2023-05-10T14:55:39.380Z,30.62
2023-05-10T14:58:09.664Z,30.61
2023-05-10T15:00:39.915Z,30.60
2023-05-10T15:03:11.510Z,30.56
2023-05-10T15:05:42.900Z,30.55
2023-05-10T15:08:19.286Z,30.46
2023-05-10T15:10:58.512Z,30.45
2023-05-10T15:13:29.488Z,30.43
2023-05-10T15:16:02.585Z,30.44
2023-05-10T15:18:32.845Z,30.40
2023-05-10T15:21:03.093Z,30.42
2023-05-10T15:23:34.441Z,30.36
2023-05-10T15:26:11.018Z,30.35
2023-05-10T15:28:41.556Z,30.37
2023-05-10T15:31:14.869Z,30.32
2023-05-10T15:33:45.351Z,30.32
2023-05-10T15:36:15.780Z,30.14
2023-05-10T15:38:46.164Z,30.00
2023-05-10T15:41:16.392Z,30.00
2023-05-10T15:43:46.650Z,29.96
2023-05-10T15:46:17.283Z,29.88
2023-05-10T15:48:47.928Z,29.81
2023-05-10T15:51:18.151Z,29.81
2023-05-10T15:54:05.292Z,29.73
2023-05-10T15:56:37.789Z,29.73
2023-05-10T15:59:09.977Z,29.69
2023-05-10T16:01:40.258Z,29.65
2023-05-10T16:04:10.735Z,29.67
2023-05-10T16:06:44.545Z,29.61
2023-05-10T16:09:18.023Z,29.62
2023-05-10T16:11:51.066Z,29.59
2023-05-10T16:14:25.971Z,29.54
2023-05-10T16:16:56.385Z,29.50
2023-05-10T16:19:32.164Z,29.51
2023-05-10T16:22:02.586Z,29.49
2023-05-10T16:24:32.779Z,29.50
2023-05-10T16:27:03.009Z,29.47
2023-05-10T16:29:33.593Z,29.48
2023-05-10T16:32:04.166Z,29.46
2023-05-10T16:34:34.317Z,29.43
2023-05-10T16:37:04.486Z,29.39
2023-05-10T16:39:38.660Z,29.38
2023-05-10T16:42:11.808Z,29.37
2023-05-10T16:44:41.871Z,29.35
2023-05-10T16:47:12.002Z,29.31
2023-05-10T16:49:42.059Z,29.33
2023-05-10T16:52:12.340Z,29.29
2023-05-10T16:54:42.629Z,29.27
2023-05-10T16:57:12.603Z,29.29
2023-05-10T16:59:42.777Z,29.22
2023-05-10T17:02:13.135Z,29.23
2023-05-10T17:04:45.883Z,29.22
2023-05-10T17:07:16.599Z,29.23
2023-05-10T17:10:13.167Z,29.17
2023-05-10T17:13:04.887Z,29.18
2023-05-10T17:15:39.044Z,29.13
2023-05-10T17:18:09.647Z,29.12
2023-05-10T17:20:39.726Z,29.14
2023-05-10T17:23:10.315Z,29.09
2023-05-10T17:25:40.490Z,29.10
2023-05-10T17:28:10.641Z,29.11
2023-05-10T17:30:40.680Z,29.09
2023-05-10T17:33:10.914Z,29.04
2023-05-10T17:35:41.410Z,29.05
2023-05-10T17:38:11.455Z,29.05
2023-05-10T17:40:44.312Z,29.02
2023-05-10T17:43:14.403Z,29.04
2023-05-10T17:45:45.561Z,29.00
2023-05-10T17:48:15.814Z,29.01
2023-05-10T17:50:46.322Z,28.98
2023-05-10T17:53:16.615Z,28.98
2023-05-10T17:55:46.799Z,28.98
2023-05-10T17:58:16.846Z,28.95
2023-05-10T18:00:47.743Z,28.95
2023-05-10T18:03:17.701Z,28.92
2023-05-10T18:05:48.789Z,28.92
2023-05-10T18:08:23.971Z,28.88
2023-05-10T18:10:54.020Z,28.93
2023-05-10T18:13:24.336Z,28.84
2023-05-10T18:15:54.720Z,28.83
2023-05-10T18:18:25.510Z,28.85
2023-05-10T18:20:58.906Z,28.80
2023-05-10T18:23:29.005Z,28.78
2023-05-10T18:25:59.385Z,28.78
2023-05-10T18:28:29.399Z,28.77
2023-05-10T18:30:59.702Z,28.75
2023-05-10T18:33:30.456Z,28.79
2023-05-10T18:36:00.476Z,28.78
2023-05-10T18:38:30.705Z,28.72
2023-05-10T18:41:01.071Z,28.75
2023-05-10T18:43:31.050Z,28.70
2023-05-10T18:46:01.168Z,28.69
2023-05-10T18:48:31.250Z,28.66
2023-05-10T18:51:01.318Z,28.66
2023-05-10T18:53:31.533Z,28.70
2023-05-10T18:56:01.823Z,28.69
2023-05-10T18:58:31.923Z,28.67
2023-05-10T19:01:01.957Z,28.64
2023-05-10T19:03:31.961Z,28.64
2023-05-10T19:06:02.119Z,28.61
2023-05-10T19:08:32.412Z,28.62
2023-05-10T19:11:02.775Z,28.59
2023-05-10T19:13:32.939Z,28.57
2023-05-10T19:16:08.194Z,28.58
2023-05-10T19:18:38.472Z,28.59
2023-05-10T19:21:11.266Z,28.57
2023-05-10T19:23:43.094Z,28.54
2023-05-10T19:26:13.833Z,28.56
2023-05-10T19:28:44.019Z,28.51
2023-05-10T19:31:14.490Z,28.52
2023-05-10T19:33:44.520Z,28.51
2023-05-10T19:36:14.616Z,28.47
2023-05-10T19:38:44.724Z,28.42
2023-05-10T19:41:14.820Z,28.41
2023-05-10T19:43:44.902Z,28.45
2023-05-10T19:46:17.067Z,28.41
2023-05-10T19:48:47.866Z,28.39
2023-05-10T19:51:21.391Z,28.34
2023-05-10T19:53:54.205Z,28.40
2023-05-10T19:56:24.234Z,28.38
2023-05-10T19:58:54.275Z,28.34
2023-05-10T20:01:24.699Z,28.35
2023-05-10T20:03:55.056Z,28.35
2023-05-10T20:06:25.443Z,28.37
2023-05-10T20:08:55.510Z,28.31
2023-05-10T20:11:25.628Z,28.32
2023-05-10T20:13:55.842Z,28.34
2023-05-10T20:16:26.935Z,28.31
2023-05-10T20:18:57.721Z,28.32
2023-05-10T20:21:28.106Z,28.28
2023-05-10T20:23:58.185Z,28.29
2023-05-10T20:26:28.210Z,28.25
2023-05-10T20:28:58.376Z,28.29
2023-05-10T20:31:31.454Z,28.28
2023-05-10T20:34:01.813Z,28.23
2023-05-10T20:36:32.863Z,28.28
2023-05-10T20:39:02.905Z,28.22
2023-05-10T20:41:32.934Z,28.24
2023-05-10T20:44:03.026Z,28.22
2023-05-10T20:46:33.499Z,28.24
2023-05-10T20:49:03.920Z,28.18
2023-05-10T20:51:34.639Z,28.20
2023-05-10T20:54:05.716Z,28.16
2023-05-10T20:56:36.328Z,28.14
2023-05-10T20:59:06.515Z,28.15
2023-05-10T21:01:40.366Z,28.05
2023-05-10T21:04:10.665Z,28.14
2023-05-10T21:06:40.782Z,28.11
2023-05-10T21:09:11.019Z,28.11
2023-05-10T21:11:41.161Z,28.09
2023-05-10T21:14:11.818Z,28.10
2023-05-10T21:16:41.914Z,28.11
2023-05-10T21:19:16.434Z,28.06
2023-05-10T21:21:52.509Z,28.03
2023-05-10T21:24:22.657Z,28.04
2023-05-10T21:26:52.892Z,28.05
2023-05-10T21:29:22.900Z,28.06
2023-05-10T21:31:53.038Z,28.05
2023-05-10T21:34:23.584Z,28.10
2023-05-10T21:36:53.739Z,28.03
2023-05-10T21:39:23.829Z,28.07
2023-05-10T21:41:57.460Z,27.98
2023-05-10T21:44:27.756Z,28.03
2023-05-10T21:46:57.858Z,28.00
2023-05-10T21:49:28.465Z,28.03
2023-05-10T21:51:58.464Z,27.97
2023-05-10T21:54:28.712Z,27.92
2023-05-10T21:56:59.677Z,27.96
2023-05-10T21:59:29.690Z,27.94
2023-05-10T22:01:59.811Z,27.96
2023-05-10T22:04:29.854Z,27.89
2023-05-10T22:07:00.006Z,27.87
2023-05-10T22:09:30.259Z,27.87
2023-05-10T22:12:00.313Z,27.89
2023-05-10T22:14:30.355Z,27.87
2023-05-10T22:17:00.464Z,27.87
2023-05-10T22:19:30.516Z,27.87
2023-05-10T22:22:00.699Z,27.86
2023-05-10T22:24:30.859Z,27.84
2023-05-10T22:27:01.073Z,27.81
2023-05-10T22:29:31.952Z,27.80
2023-05-10T22:32:07.174Z,27.82
2023-05-10T22:34:37.733Z,27.74
2023-05-10T22:37:07.776Z,27.80
2023-05-10T22:39:37.813Z,27.80
2023-05-10T22:42:08.024Z,27.78
2023-05-10T22:44:38.776Z,27.79
2023-05-10T22:47:10.284Z,27.77
2023-05-10T22:49:40.300Z,27.77
2023-05-10T22:52:11.093Z,27.73
2023-05-10T22:54:41.416Z,27.74
2023-05-10T22:57:11.423Z,27.70
2023-05-10T22:59:41.721Z,27.73
2023-05-10T23:02:11.899Z,27.91
2023-05-10T23:04:42.012Z,28.25
2023-05-10T23:07:12.935Z,28.48
2023-05-10T23:09:43.335Z,28.62
2023-05-10T23:12:13.422Z,28.83
2023-05-10T23:14:43.607Z,28.96
2023-05-10T23:17:13.930Z,29.19
2023-05-10T23:19:44.051Z,29.40
2023-05-10T23:22:15.268Z,29.61
2023-05-10T23:24:45.252Z,29.75
2023-05-10T23:27:16.051Z,29.89
2023-05-10T23:29:46.309Z,30.01
2023-05-10T23:32:16.514Z,30.13
2023-05-10T23:34:47.113Z,30.25
2023-05-10T23:37:17.230Z,30.33
2023-05-10T23:39:47.200Z,30.43
2023-05-10T23:42:17.217Z,30.52
2023-05-10T23:44:48.167Z,30.57
2023-05-10T23:47:18.820Z,30.65
2023-05-10T23:49:48.815Z,30.68
2023-05-10T23:52:19.165Z,30.62
2023-05-10T23:54:49.234Z,30.62
2023-05-10T23:57:19.476Z,30.70
2023-05-10T23:59:49.945Z,30.70
